createdAt,value
2019-04-26T00:01:20.514Z,0.40
2019-04-26T00:03:50.131Z,0.93
2019-04-26T00:06:20.030Z,0.60
2019-04-26T00:08:54.238Z,2.00
2019-04-26T00:11:40.838Z,1.43
2019-04-26T00:14:20.807Z,0.60
2019-04-26T00:17:09.245Z,1.80
2019-04-26T00:19:39.495Z,1.00
2019-04-26T00:22:10.683Z,0.83
2019-04-26T00:24:41.006Z,0.90
2019-04-26T00:27:11.290Z,1.00
2019-04-26T00:29:40.860Z,0.60
2019-04-26T00:32:10.668Z,0.50
2019-04-26T00:34:41.211Z,1.90
2019-04-26T00:37:11.584Z,0.60
2019-04-26T00:39:41.711Z,1.50
2019-04-26T00:42:12.178Z,0.40
2019-04-26T00:44:42.715Z,0.93
2019-04-26T00:47:15.159Z,1.60
2019-04-26T00:49:45.204Z,1.43
2019-04-26T00:52:15.722Z,0.60
2019-04-26T00:54:46.019Z,0.60
2019-04-26T00:57:18.181Z,0.60
2019-04-26T00:59:49.241Z,0.90
2019-04-26T01:02:33.572Z,0.50
2019-04-26T01:05:02.976Z,1.67
2019-04-26T01:07:32.406Z,0.70
2019-04-26T01:10:01.775Z,2.00
2019-04-26T01:12:31.152Z,0.70
2019-04-26T01:15:00.557Z,0.50
2019-04-26T01:17:29.993Z,2.80
2019-04-26T01:19:59.893Z,0.73
2019-04-26T01:22:33.057Z,0.40
2019-04-26T01:25:04.268Z,0.50
2019-04-26T01:27:35.468Z,0.60
2019-04-26T01:30:08.503Z,0.50
2019-04-26T01:32:42.048Z,0.50
2019-04-26T01:38:00.192Z,0.50
2019-04-26T01:40:32.386Z,0.60
2019-04-26T01:43:10.976Z,0.50
2019-04-26T01:45:50.684Z,0.40
2019-04-26T01:48:45.578Z,0.60
2019-04-26T01:51:28.952Z,0.80
2019-04-26T01:53:58.336Z,1.13
2019-04-26T01:56:32.128Z,0.67
2019-04-26T01:59:01.503Z,0.70
2019-04-26T02:01:39.724Z,0.57
2019-04-26T02:04:09.209Z,0.47
2019-04-26T02:06:38.719Z,3.43
2019-04-26T02:09:09.469Z,0.97
2019-04-26T02:11:39.642Z,0.60
2019-04-26T02:14:09.418Z,0.40
2019-04-26T02:16:39.055Z,0.83
2019-04-26T02:19:08.622Z,0.93
2019-04-26T02:21:44.322Z,1.10
2019-04-26T02:24:38.661Z,1.07
2019-04-26T02:27:21.449Z,0.50
2019-04-26T02:29:51.194Z,0.80
2019-04-26T02:32:21.780Z,1.03
2019-04-26T02:34:51.190Z,0.50
2019-04-26T02:37:20.627Z,1.00
2019-04-26T02:39:50.856Z,0.60
2019-04-26T02:42:36.819Z,0.50
2019-04-26T02:46:06.263Z,0.60
2019-04-26T02:49:00.171Z,2.70
2019-04-26T02:51:36.326Z,1.23
2019-04-26T02:54:14.460Z,1.10
2019-04-26T02:56:46.847Z,1.20
2019-04-26T02:59:42.862Z,0.80
2019-04-26T03:02:25.170Z,0.80
2019-04-26T03:05:00.326Z,1.00
2019-04-26T03:08:04.641Z,0.83
2019-04-26T03:10:40.257Z,0.70
2019-04-26T03:13:18.027Z,1.00
2019-04-26T03:16:09.719Z,0.93
2019-04-26T03:19:10.932Z,0.90
2019-04-26T03:22:01.120Z,2.20
2019-04-26T03:24:40.671Z,0.80
2019-04-26T03:27:33.577Z,1.53
2019-04-26T03:30:20.172Z,0.90
2019-04-26T03:33:26.831Z,1.07
2019-04-26T03:36:13.427Z,1.07
2019-04-26T03:39:34.266Z,1.53
2019-04-26T03:42:25.697Z,1.83
2019-04-26T03:45:25.028Z,1.87
2019-04-26T03:48:06.520Z,1.27
2019-04-26T03:50:45.021Z,2.03
2019-04-26T03:53:55.116Z,2.63
2019-04-26T03:56:54.010Z,1.70
2019-04-26T03:59:50.423Z,2.07
2019-04-26T04:02:43.570Z,1.70
2019-04-26T04:05:27.069Z,1.53
2019-04-26T04:07:59.281Z,1.63
2019-04-26T04:10:34.564Z,1.50
2019-04-26T04:13:43.219Z,1.60
2019-04-26T04:16:43.632Z,1.40
2019-04-26T04:19:23.060Z,1.80
2019-04-26T04:22:00.862Z,1.43
2019-04-26T04:24:45.074Z,1.60
2019-04-26T04:27:41.369Z,3.00
2019-04-26T04:30:36.061Z,2.07
2019-04-26T04:33:53.370Z,1.60
2019-04-26T04:36:30.201Z,1.90
2019-04-26T04:39:30.552Z,2.47
2019-04-26T04:42:43.430Z,3.03
2019-04-26T04:45:58.742Z,1.53
2019-04-26T04:48:52.814Z,1.90
2019-04-26T04:51:44.190Z,2.20
2019-04-26T04:54:19.791Z,4.13
2019-04-26T04:57:26.273Z,1.60
2019-04-26T05:00:17.011Z,1.70
2019-04-26T05:02:58.841Z,1.57
2019-04-26T05:06:07.723Z,2.20
2019-04-26T05:09:09.627Z,1.80
2019-04-26T05:11:52.367Z,2.17
2019-04-26T05:14:56.212Z,1.93
2019-04-26T05:18:01.706Z,2.00
2019-04-26T05:20:53.342Z,1.93
2019-04-26T05:23:58.526Z,1.53
2019-04-26T05:27:15.964Z,2.23
2019-04-26T05:30:52.038Z,2.00
2019-04-26T05:33:54.591Z,2.00
2019-04-26T05:36:37.784Z,4.33
2019-04-26T05:39:21.020Z,1.60
2019-04-26T05:42:25.608Z,2.27
2019-04-26T05:45:41.746Z,1.67
2019-04-26T05:48:41.768Z,3.07
2019-04-26T05:51:38.540Z,2.30
2019-04-26T05:54:43.316Z,2.50
2019-04-26T05:57:35.500Z,2.20
2019-04-26T06:00:27.422Z,2.80
2019-04-26T06:03:32.220Z,1.83
2019-04-26T06:06:26.460Z,2.33
2019-04-26T06:09:39.209Z,2.10
2019-04-26T06:12:29.065Z,2.70
2019-04-26T06:15:44.369Z,2.30
2019-04-26T06:18:59.775Z,2.50
2019-04-26T06:21:43.631Z,2.97
2019-04-26T06:24:37.798Z,3.10
2019-04-26T06:27:42.161Z,3.53
2019-04-26T06:30:18.799Z,2.53
2019-04-26T06:33:28.942Z,3.07
2019-04-26T06:36:02.264Z,3.97
2019-04-26T06:39:26.463Z,2.00
2019-04-26T06:42:36.882Z,1.40
2019-04-26T06:45:41.921Z,2.87
2019-04-26T06:48:21.712Z,1.50
2019-04-26T06:50:59.793Z,2.70
2019-04-26T06:53:46.503Z,4.23
2019-04-26T06:56:53.408Z,1.83
2019-04-26T06:59:43.281Z,2.03
2019-04-26T07:02:24.610Z,2.63
2019-04-26T07:05:17.728Z,3.23
2019-04-26T07:08:30.904Z,2.87
2019-04-26T07:12:08.180Z,2.00
2019-04-26T07:15:07.874Z,2.10
2019-04-26T07:17:53.348Z,4.13
2019-04-26T07:20:31.633Z,3.50
2019-04-26T07:24:11.465Z,3.30
2019-04-26T07:27:26.998Z,3.60
2019-04-26T07:30:18.124Z,2.07
2019-04-26T07:33:27.391Z,2.47
2019-04-26T07:36:11.925Z,2.27
2019-04-26T07:39:20.650Z,2.50
2019-04-26T07:42:21.392Z,2.60
2019-04-26T07:45:26.892Z,2.43
2019-04-26T07:48:18.627Z,3.17
2019-04-26T07:51:23.322Z,2.80
2019-04-26T07:54:34.131Z,3.70
2019-04-26T07:57:46.670Z,3.83
2019-04-26T08:00:19.660Z,2.63
2019-04-26T08:03:13.042Z,2.53
2019-04-26T08:06:04.541Z,4.57
2019-04-26T08:08:46.192Z,4.07
2019-04-26T08:11:22.232Z,2.60
2019-04-26T08:14:16.683Z,3.07
2019-04-26T08:17:14.970Z,4.23
2019-04-26T08:19:53.539Z,3.43
2019-04-26T08:22:28.531Z,4.23
2019-04-26T08:24:57.708Z,3.27
2019-04-26T08:27:30.113Z,3.43
2019-04-26T08:30:10.453Z,3.80
2019-04-26T08:32:42.101Z,3.27
2019-04-26T08:35:24.104Z,4.77
2019-04-26T08:37:57.607Z,4.47
2019-04-26T08:40:31.214Z,4.43
2019-04-26T08:43:18.281Z,5.90
2019-04-26T08:46:03.082Z,4.73
2019-04-26T08:48:52.301Z,4.63
2019-04-26T08:51:22.330Z,6.53
2019-04-26T08:53:54.501Z,4.80
2019-04-26T08:56:29.068Z,6.73
2019-04-26T08:59:02.796Z,5.17
2019-04-26T09:01:45.468Z,5.37
2019-04-26T09:04:41.118Z,4.87
2019-04-26T09:07:17.011Z,6.10
2019-04-26T09:09:57.069Z,4.80
2019-04-26T09:12:23.163Z,5.60
2019-04-26T09:14:55.647Z,5.77
2019-04-26T09:17:27.848Z,4.50
2019-04-26T09:19:58.076Z,4.43
2019-04-26T09:22:46.097Z,7.43
2019-04-26T09:25:30.328Z,5.57
2019-04-26T09:28:09.769Z,5.17
2019-04-26T09:30:47.754Z,5.30
2019-04-26T09:33:21.939Z,5.90
2019-04-26T09:35:51.345Z,6.13
2019-04-26T09:38:20.692Z,5.80
2019-04-26T09:40:52.674Z,4.80
2019-04-26T09:43:27.379Z,5.37
2019-04-26T09:46:31.100Z,5.50
2019-04-26T09:49:19.420Z,5.70
2019-04-26T09:51:48.902Z,6.10
2019-04-26T09:54:18.253Z,5.43
2019-04-26T09:56:47.641Z,13.27
2019-04-26T09:59:17.004Z,4.63
2019-04-26T10:01:46.393Z,5.90
2019-04-26T10:04:15.762Z,16.03
2019-04-26T10:06:45.162Z,22.50
2019-04-26T10:09:21.261Z,7.50
2019-04-26T10:11:54.401Z,4.93
2019-04-26T10:14:46.552Z,6.43
2019-04-26T10:17:19.596Z,5.20
2019-04-26T10:19:50.892Z,5.83
2019-04-26T10:22:20.711Z,7.57
2019-04-26T10:24:50.078Z,8.03
2019-04-26T10:27:19.460Z,9.30
2019-04-26T10:29:48.796Z,6.83
2019-04-26T10:32:21.745Z,6.73
2019-04-26T10:34:49.179Z,5.90
2019-04-26T10:37:18.616Z,8.47
2019-04-26T10:39:47.981Z,19.17
2019-04-26T10:42:17.361Z,6.23
2019-04-26T10:44:46.712Z,7.00
2019-04-26T10:47:16.096Z,7.17
2019-04-26T10:49:47.153Z,7.80
2019-04-26T10:52:34.871Z,8.07
2019-04-26T10:55:26.327Z,5.37
2019-04-26T10:57:58.968Z,6.73
2019-04-26T11:00:33.931Z,5.80
2019-04-26T11:03:04.625Z,6.07
2019-04-26T11:05:34.312Z,4.87
2019-04-26T11:08:03.694Z,4.70
2019-04-26T11:10:33.142Z,4.43
2019-04-26T11:13:02.650Z,4.63
2019-04-26T11:15:32.689Z,4.50
2019-04-26T11:18:03.209Z,5.63
2019-04-26T11:20:32.564Z,4.70
2019-04-26T11:23:01.972Z,3.93
2019-04-26T11:25:31.327Z,4.33
2019-04-26T11:28:00.701Z,3.20
2019-04-26T11:30:30.047Z,3.40
2019-04-26T11:32:59.423Z,2.70
2019-04-26T11:35:29.247Z,2.30
2019-04-26T11:37:59.820Z,2.57
2019-04-26T11:40:29.271Z,4.40
2019-04-26T11:42:58.625Z,2.07
2019-04-26T11:45:27.970Z,2.70
2019-04-26T11:47:57.350Z,3.43
2019-04-26T11:50:26.696Z,2.97
2019-04-26T11:52:56.084Z,4.20
2019-04-26T11:55:29.626Z,1.90
2019-04-26T11:57:56.432Z,2.43
2019-04-26T12:00:30.196Z,2.10
2019-04-26T12:02:59.557Z,3.10
2019-04-26T12:05:46.431Z,1.93
2019-04-26T12:08:18.653Z,2.13
2019-04-26T12:10:48.009Z,2.03
2019-04-26T12:13:17.537Z,4.30
2019-04-26T12:15:46.845Z,3.33
2019-04-26T12:18:16.226Z,3.33
2019-04-26T12:20:45.570Z,2.40
2019-04-26T12:23:20.543Z,2.43
2019-04-26T12:25:48.042Z,3.40
2019-04-26T12:28:16.970Z,2.60
2019-04-26T12:30:46.332Z,2.63
2019-04-26T12:33:15.681Z,2.47
2019-04-26T12:35:45.068Z,2.80
2019-04-26T12:38:14.421Z,4.60
2019-04-26T12:40:46.254Z,2.00
2019-04-26T12:43:15.784Z,4.30
2019-04-26T12:45:55.398Z,6.80
2019-04-26T12:48:24.784Z,6.20
2019-04-26T12:50:54.147Z,4.03
2019-04-26T12:53:26.706Z,5.70
2019-04-26T12:55:58.107Z,5.10
2019-04-26T12:58:25.512Z,2.60
2019-04-26T13:00:54.981Z,3.00
2019-04-26T13:03:24.857Z,1.97
2019-04-26T13:05:58.232Z,2.60
2019-04-26T13:08:26.349Z,1.63
2019-04-26T13:11:32.837Z,1.67
2019-04-26T13:14:09.780Z,2.00
2019-04-26T13:16:52.730Z,1.60
2019-04-26T13:19:22.080Z,2.23
2019-04-26T13:21:51.467Z,2.33
2019-04-26T13:24:20.832Z,2.50
2019-04-26T13:26:50.396Z,2.23
2019-04-26T13:29:19.844Z,2.00
2019-04-26T13:31:49.223Z,2.20
2019-04-26T13:34:18.575Z,2.40
2019-04-26T13:36:47.956Z,3.07
2019-04-26T13:39:18.512Z,2.70
2019-04-26T13:41:48.328Z,3.00
2019-04-26T13:44:39.444Z,3.83
2019-04-26T13:47:23.387Z,3.50
2019-04-26T13:50:12.501Z,3.70
2019-04-26T13:52:41.885Z,2.83
2019-04-26T13:55:11.232Z,2.73
2019-04-26T13:57:44.499Z,3.50
2019-04-26T14:00:14.042Z,4.23
2019-04-26T14:02:43.425Z,3.20
2019-04-26T14:05:15.341Z,4.00
2019-04-26T14:07:43.789Z,4.80
2019-04-26T14:10:13.269Z,3.33
2019-04-26T14:12:46.106Z,4.70
2019-04-26T14:15:13.654Z,3.93
2019-04-26T14:17:43.016Z,4.73
2019-04-26T14:20:12.569Z,3.50
2019-04-26T14:22:49.349Z,4.30
2019-04-26T14:25:21.123Z,3.00
2019-04-26T14:27:54.128Z,4.80
2019-04-26T14:30:23.592Z,2.90
2019-04-26T14:32:53.122Z,3.73
2019-04-26T14:35:24.004Z,5.30
2019-04-26T14:37:53.527Z,4.53
2019-04-26T14:40:22.939Z,4.07
2019-04-26T14:43:05.715Z,4.33
2019-04-26T14:45:24.239Z,3.90
2019-04-26T14:47:53.658Z,11.50
2019-04-26T14:50:23.009Z,5.90
2019-04-26T14:52:52.675Z,4.97
2019-04-26T14:55:22.878Z,5.33
2019-04-26T14:57:54.013Z,5.63
2019-04-26T15:00:28.773Z,6.20
2019-04-26T15:03:17.317Z,5.13
2019-04-26T15:06:07.741Z,4.67
2019-04-26T15:08:40.539Z,5.00
2019-04-26T15:11:08.178Z,4.13
2019-04-26T15:13:40.427Z,4.90
2019-04-26T15:16:10.323Z,5.80
2019-04-26T15:18:40.157Z,5.47
2019-04-26T15:21:09.499Z,4.27
2019-04-26T15:23:38.893Z,6.20
2019-04-26T15:26:08.238Z,5.13
2019-04-26T15:28:37.639Z,3.40
2019-04-26T15:31:07.033Z,4.10
2019-04-26T15:33:36.442Z,3.80
2019-04-26T15:36:06.346Z,4.70
2019-04-26T15:38:41.369Z,4.00
2019-04-26T15:41:31.128Z,3.80
2019-04-26T15:44:06.506Z,5.10
2019-04-26T15:46:53.817Z,4.27
2019-04-26T15:49:42.834Z,4.53
2019-04-26T15:52:12.332Z,4.77
2019-04-26T15:54:42.530Z,6.90
2019-04-26T15:57:12.427Z,9.20
2019-04-26T15:59:43.065Z,10.30
2019-04-26T16:02:12.648Z,16.00
2019-04-26T16:04:42.410Z,12.27
2019-04-26T16:07:15.483Z,7.70
2019-04-26T16:09:43.845Z,9.27
2019-04-26T16:12:13.497Z,10.13
2019-04-26T16:14:42.936Z,7.90
2019-04-26T16:17:12.605Z,4.67
2019-04-26T16:19:42.633Z,7.93
2019-04-26T16:22:12.040Z,4.80
2019-04-26T16:24:42.869Z,3.57
2019-04-26T16:27:12.649Z,10.30
2019-04-26T16:29:55.573Z,8.40
2019-04-26T16:32:40.742Z,4.10
2019-04-26T16:35:10.226Z,2.40
2019-04-26T16:37:39.587Z,3.17
2019-04-26T16:40:12.413Z,2.97
2019-04-26T16:42:41.319Z,4.70
2019-04-26T16:45:12.324Z,3.17
2019-04-26T16:47:47.330Z,3.30
2019-04-26T16:50:14.884Z,3.53
2019-04-26T16:52:47.665Z,4.30
2019-04-26T16:55:20.662Z,4.03
2019-04-26T16:57:54.876Z,3.50
2019-04-26T17:00:17.416Z,5.27
2019-04-26T17:02:46.756Z,5.40
2019-04-26T17:05:21.141Z,6.40
2019-04-26T17:07:47.141Z,4.27
2019-04-26T17:10:20.426Z,5.20
2019-04-26T17:12:50.578Z,4.50
2019-04-26T17:15:21.124Z,3.97
2019-04-26T17:17:50.504Z,4.10
2019-04-26T17:20:20.672Z,5.33
2019-04-26T17:23:07.917Z,6.27
2019-04-26T17:25:59.034Z,6.60
2019-04-26T17:28:27.337Z,6.13
2019-04-26T17:30:56.829Z,4.13
2019-04-26T17:33:28.148Z,4.33
2019-04-26T17:35:57.283Z,5.80
2019-04-26T17:38:26.677Z,5.43
2019-04-26T17:40:56.072Z,4.30
2019-04-26T17:43:25.502Z,5.10
2019-04-26T17:45:54.877Z,5.13
2019-04-26T17:48:24.298Z,4.20
2019-04-26T17:50:53.672Z,3.93
2019-04-26T17:53:30.670Z,5.03
2019-04-26T17:55:55.023Z,4.93
2019-04-26T17:58:30.947Z,6.00
2019-04-26T18:00:56.535Z,7.03
2019-04-26T18:03:26.782Z,5.30
2019-04-26T18:05:57.422Z,4.80
2019-04-26T18:08:41.102Z,5.60
2019-04-26T18:10:58.278Z,4.70
2019-04-26T18:13:27.671Z,6.10
2019-04-26T18:15:57.001Z,4.63
2019-04-26T18:18:49.968Z,5.43
2019-04-26T18:21:33.519Z,9.27
2019-04-26T18:24:02.968Z,6.53
2019-04-26T18:26:32.762Z,6.77
2019-04-26T18:29:03.872Z,6.83
2019-04-26T18:31:33.728Z,7.43
2019-04-26T18:34:04.146Z,10.83
2019-04-26T18:36:33.626Z,7.23
2019-04-26T18:39:03.844Z,8.53
2019-04-26T18:41:33.918Z,6.23
2019-04-26T18:44:03.500Z,8.57
2019-04-26T18:46:53.459Z,7.67
2019-04-26T18:49:26.951Z,7.80
2019-04-26T18:51:54.640Z,8.23
2019-04-26T18:54:32.859Z,8.50
2019-04-26T18:57:03.586Z,7.33
2019-04-26T18:59:34.142Z,7.20
2019-04-26T19:02:03.952Z,8.40
2019-04-26T19:04:33.641Z,8.80
2019-04-26T19:07:03.119Z,9.27
2019-04-26T19:09:45.261Z,12.93
2019-04-26T19:12:03.496Z,8.50
2019-04-26T19:15:11.485Z,9.13
2019-04-26T19:18:00.229Z,11.53
2019-04-26T19:20:43.357Z,14.60
2019-04-26T19:23:12.748Z,12.47
2019-04-26T19:25:42.113Z,11.90
2019-04-26T19:28:12.130Z,14.73
2019-04-26T19:30:48.213Z,15.00
2019-04-26T19:33:17.022Z,16.70
2019-04-26T19:35:47.250Z,14.17
2019-04-26T19:38:14.925Z,14.60
2019-04-26T19:40:47.825Z,16.43
2019-04-26T19:43:27.736Z,16.20
2019-04-26T19:46:01.454Z,11.20
2019-04-26T19:49:03.446Z,15.07
2019-04-26T19:51:56.621Z,14.00
2019-04-26T19:54:37.988Z,13.63
2019-04-26T19:57:26.564Z,17.93
2019-04-26T19:59:55.952Z,18.87
2019-04-26T20:02:26.782Z,17.50
2019-04-26T20:04:56.364Z,26.93
2019-04-26T20:07:28.235Z,58.20
2019-04-26T20:10:02.383Z,44.07
2019-04-26T20:12:29.459Z,38.27
2019-04-26T20:14:58.780Z,25.27
2019-04-26T20:17:28.141Z,25.77
2019-04-26T20:19:57.554Z,16.23
2019-04-26T20:22:30.003Z,16.47
2019-04-26T20:24:57.952Z,13.70
2019-04-26T20:27:27.986Z,15.70
2019-04-26T20:29:57.476Z,16.23
2019-04-26T20:32:45.070Z,19.63
2019-04-26T20:35:19.850Z,16.90
2019-04-26T20:37:47.836Z,20.80
2019-04-26T20:40:21.794Z,12.93
2019-04-26T20:42:48.268Z,13.43
2019-04-26T20:45:17.656Z,17.87
2019-04-26T20:47:52.008Z,18.33
2019-04-26T20:50:18.043Z,15.77
2019-04-26T20:52:47.379Z,22.10
2019-04-26T20:55:16.724Z,16.17
2019-04-26T20:57:46.100Z,17.07
2019-04-26T21:00:17.035Z,14.93
2019-04-26T21:02:46.398Z,18.20
2019-04-26T21:05:15.757Z,19.47
2019-04-26T21:07:49.426Z,15.87
2019-04-26T21:10:21.965Z,16.17
2019-04-26T21:12:51.173Z,14.57
2019-04-26T21:15:20.181Z,15.50
2019-04-26T21:17:49.253Z,14.83
2019-04-26T21:20:18.617Z,20.00
2019-04-26T21:22:48.021Z,20.97
2019-04-26T21:25:27.779Z,17.53
2019-04-26T21:28:02.417Z,17.27
2019-04-26T21:30:41.696Z,15.00
2019-04-26T21:33:15.777Z,16.47
2019-04-26T21:36:05.722Z,19.70
2019-04-26T21:38:55.202Z,18.70
2019-04-26T21:41:26.600Z,20.00
2019-04-26T21:43:55.957Z,17.43
2019-04-26T21:46:25.333Z,23.73
2019-04-26T21:48:54.687Z,18.83
2019-04-26T21:51:24.053Z,23.00
2019-04-26T21:53:53.433Z,20.93
2019-04-26T21:56:23.572Z,22.80
2019-04-26T21:58:53.390Z,18.83
2019-04-26T22:01:23.449Z,23.27
2019-04-26T22:03:58.126Z,17.13
2019-04-26T22:06:28.415Z,20.60
2019-04-26T22:09:04.760Z,20.53
2019-04-26T22:11:32.259Z,20.90
2019-04-26T22:14:13.152Z,24.43
2019-04-26T22:16:57.467Z,16.00
2019-04-26T22:20:00.045Z,20.70
2019-04-26T22:22:46.401Z,13.03
2019-04-26T22:25:16.340Z,22.77
2019-04-26T22:27:45.716Z,26.70
2019-04-26T22:30:22.782Z,17.43
2019-04-26T22:32:54.617Z,17.50
2019-04-26T22:35:22.576Z,24.47
2019-04-26T22:37:53.632Z,21.17
2019-04-26T22:40:23.398Z,24.40
2019-04-26T22:42:58.018Z,23.50
2019-04-26T22:45:39.550Z,24.00
2019-04-26T22:48:19.140Z,25.40
2019-04-26T22:50:45.263Z,24.43
2019-04-26T22:53:14.650Z,25.53
2019-04-26T22:55:44.001Z,24.00
2019-04-26T22:58:13.506Z,23.43
2019-04-26T23:00:43.690Z,26.67
2019-04-26T23:03:13.793Z,25.77
2019-04-26T23:05:43.415Z,31.43
2019-04-26T23:08:13.587Z,23.53
2019-04-26T23:10:49.057Z,32.57
2019-04-26T23:13:37.797Z,28.67
2019-04-26T23:17:01.479Z,29.97
2019-04-26T23:19:43.518Z,25.70
2019-04-26T23:22:12.963Z,24.60
2019-04-26T23:24:42.813Z,25.53
2019-04-26T23:27:14.879Z,26.30
2019-04-26T23:29:45.898Z,27.77
2019-04-26T23:32:18.203Z,31.70
2019-04-26T23:34:46.412Z,27.00
2019-04-26T23:37:19.389Z,30.00
2019-04-26T23:39:49.783Z,31.67
2019-04-26T23:42:17.837Z,29.50
2019-04-26T23:44:47.255Z,25.67
2019-04-26T23:47:22.360Z,26.97
2019-04-26T23:49:49.415Z,36.00
2019-04-26T23:52:18.806Z,32.53
2019-04-26T23:54:48.916Z,34.77
2019-04-26T23:57:18.297Z,29.70
2019-04-26T23:59:51.057Z,26.93
